Time;durP1;ratioP1;P1;durP2;ratioP2;P2;SDS_P1;SDS_P2;PMS_P1;PMS_P2;Temp;Humidity;BMP_temperature;BMP_pressure;BME280_temperature;BME280_humidity;BME280_pressure;Samples;Min_cycle;Max_cycle;Signal;HPM_P1;HPM_P2
2021/12/01 00:00:23;;;;;;;;;0.00;0.00;;;;;20.84;41.01;100666.06;5031799;27;47622;-73
2021/12/01 00:02:53;;;;;;;;;0.00;0.00;;;;;20.76;40.87;100638.88;5025492;28;45457;-77
2021/12/01 00:05:22;;;;;;;;;0.00;0.00;;;;;20.89;40.83;100656.78;5022978;28;45453;-81
2021/12/01 00:07:48;;;;;;;;;0.00;0.00;;;;;20.91;40.85;100645.03;5032020;28;45428;-75
2021/12/01 00:10:14;;;;;;;;;1.00;1.00;;;;;20.94;40.81;100631.47;5030667;28;46411;-72
2021/12/01 00:12:40;;;;;;;;;0.00;0.00;;;;;20.95;40.46;100629.59;5028562;28;45509;-73
2021/12/01 00:15:06;;;;;;;;;1.50;0.00;;;;;20.97;40.33;100611.75;5028303;28;45438;-73
2021/12/01 00:17:32;;;;;;;;;0.00;0.00;;;;;20.98;40.31;100597.53;5031401;28;45567;-72
2021/12/01 00:19:59;;;;;;;;;0.00;0.00;;;;;20.99;40.31;100599.19;5015746;28;46081;-73
2021/12/01 00:22:25;;;;;;;;;0.00;0.00;;;;;20.99;39.91;100579.84;5019444;28;45360;-73
2021/12/01 00:24:50;;;;;;;;;0.00;0.00;;;;;21.01;39.84;100576.03;5028835;28;45291;-72
2021/12/01 00:27:16;;;;;;;;;1.00;0.00;;;;;21.01;39.61;100561.97;5028692;28;45640;-73
2021/12/01 00:29:41;;;;;;;;;1.00;0.00;;;;;21.01;39.88;100572.53;5027992;28;47127;-73
2021/12/01 00:32:08;;;;;;;;;0.00;0.00;;;;;21.02;39.76;100574.22;5031351;28;45405;-72
2021/12/01 00:34:33;;;;;;;;;1.00;0.00;;;;;21.02;39.75;100567.13;5031532;28;45405;-73
2021/12/01 00:36:58;;;;;;;;;0.00;0.00;;;;;21.02;39.75;100556.53;5020123;28;45303;-72
2021/12/01 00:39:24;;;;;;;;;0.00;0.00;;;;;21.02;39.62;100545.13;5019941;28;46425;-72
2021/12/01 00:41:50;;;;;;;;;0.75;0.00;;;;;21.02;39.41;100535.38;5020342;27;45383;-73
2021/12/01 00:44:16;;;;;;;;;0.00;0.00;;;;;21.02;39.45;100535.38;5018337;28;45524;-73
2021/12/01 00:46:52;;;;;;;;;0.00;0.00;;;;;20.99;39.47;100521.66;5033017;28;45473;-73
2021/12/01 00:49:18;;;;;;;;;0.00;0.00;;;;;21.01;39.51;100520.50;5034916;28;45959;-73
2021/12/01 00:51:43;;;;;;;;;0.25;0.00;;;;;21.02;39.34;100502.81;5032758;27;45281;-72
2021/12/01 00:54:08;;;;;;;;;0.00;0.00;;;;;21.02;39.20;100500.16;5032868;27;45365;-73
2021/12/01 00:56:34;;;;;;;;;0.00;0.00;;;;;21.02;39.10;100487.78;5031719;27;45342;-73
2021/12/01 00:59:00;;;;;;;;;3.00;0.00;;;;;21.02;39.17;100482.47;5032342;27;45437;-73
2021/12/01 01:01:26;;;;;;;;;0.00;0.00;;;;;21.01;39.22;100469.38;5034399;27;45495;-72
2021/12/01 01:03:51;;;;;;;;;0.00;0.00;;;;;21.03;39.32;100476.16;5033219;28;45511;-73
2021/12/01 01:06:17;;;;;;;;;1.00;0.00;;;;;21.03;38.91;100449.72;5032590;28;45635;-72
2021/12/01 01:08:45;;;;;;;;;0.00;0.00;;;;;21.03;38.79;100454.19;5032307;28;47009;-73
2021/12/01 01:16:22;;;;;;;;;0.00;0.00;;;;;21.02;39.21;100448.09;5032329;28;45397;-72
2021/12/01 01:16:41;;;;;;;;;0.00;0.00;;;;;21.03;38.86;100433.84;5032685;27;45421;-72
2021/12/01 01:19:06;;;;;;;;;0.75;0.00;;;;;21.02;38.91;100415.53;5034184;28;45389;-72
2021/12/01 01:21:36;;;;;;;;;0.00;0.00;;;;;21.02;38.86;100413.72;5032316;28;45412;-72
2021/12/01 01:24:06;;;;;;;;;1.00;0.00;;;;;21.03;38.86;100403.94;5032351;28;45523;-72
2021/12/01 01:26:32;;;;;;;;;1.00;0.00;;;;;21.02;38.74;100389.91;5032068;28;45485;-73
2021/12/01 01:28:58;;;;;;;;;0.00;0.00;;;;;21.01;39.07;100382.97;5032313;28;46003;-72
2021/12/01 01:31:23;;;;;;;;;0.00;0.00;;;;;21.02;39.07;100403.13;5034559;28;45785;-73
2021/12/01 01:33:50;;;;;;;;;0.00;0.00;;;;;21.00;38.95;100385.78;5032391;27;45387;-73
2021/12/01 01:36:16;;;;;;;;;0.00;0.00;;;;;21.01;39.00;100368.88;5031266;27;45401;-73
2021/12/01 01:38:42;;;;;;;;;0.00;0.00;;;;;21.00;39.05;100375.19;5031987;28;46237;-72
2021/12/01 01:41:11;;;;;;;;;0.75;0.00;;;;;20.98;39.02;100361.31;5031895;27;45508;-72
2021/12/01 01:43:38;;;;;;;;;0.50;0.00;;;;;20.98;38.79;100351.56;5032745;28;45352;-73
2021/12/01 01:46:04;;;;;;;;;0.00;0.00;;;;;20.98;39.09;100361.31;5034023;27;45361;-72
2021/12/01 01:48:31;;;;;;;;;0.00;0.00;;;;;20.98;38.82;100356.03;5030346;28;46183;-72
2021/12/01 01:51:00;;;;;;;;;0.00;0.00;;;;;20.98;38.85;100345.44;5031982;28;45407;-73
2021/12/01 01:53:27;;;;;;;;;0.00;0.00;;;;;20.98;38.99;100345.44;5031001;28;45477;-73
2021/12/01 01:55:56;;;;;;;;;0.00;0.00;;;;;20.98;38.74;100333.03;5015790;28;45524;-73
2021/12/01 01:58:22;;;;;;;;;0.00;0.00;;;;;20.97;38.90;100331.41;5029960;28;46278;-72
2021/12/01 02:01:08;;;;;;;;;0.00;0.00;;;;;20.97;38.77;100328.78;5031859;28;45438;-73
2021/12/01 02:03:43;;;;;;;;;0.00;0.00;;;;;20.96;38.80;100312.09;5031949;28;45539;-72
2021/12/01 02:06:10;;;;;;;;;0.00;0.00;;;;;20.95;38.88;100302.50;5031686;28;45562;-72
2021/12/01 02:08:39;;;;;;;;;0.75;0.00;;;;;20.98;38.68;100289.91;5031557;27;46330;-72
2021/12/01 02:11:10;;;;;;;;;0.50;0.00;;;;;20.96;38.77;100295.38;5031471;28;45299;-72
2021/12/01 02:13:36;;;;;;;;;0.00;0.00;;;;;20.95;39.11;100283.16;5033205;27;45395;-72
2021/12/01 02:16:02;;;;;;;;;1.00;0.00;;;;;20.94;38.73;100265.69;5031673;28;45531;-72
2021/12/01 02:18:28;;;;;;;;;0.00;0.00;;;;;20.95;38.68;100259.34;5031445;28;46113;-72
2021/12/01 02:21:04;;;;;;;;;0.00;0.00;;;;;20.95;39.00;100264.66;5031466;28;45491;-72
2021/12/01 02:23:30;;;;;;;;;0.00;0.00;;;;;20.94;38.78;100258.56;5031877;28;45307;-72
2021/12/01 02:25:55;;;;;;;;;0.00;0.00;;;;;20.95;38.76;100246.97;5030879;28;45370;-73
2021/12/01 02:28:21;;;;;;;;;0.00;0.00;;;;;20.94;38.50;100231.28;5033798;28;45988;-72
2021/12/01 02:30:47;;;;;;;;;0.00;0.00;;;;;20.95;39.11;100232.91;5030079;28;45427;-72
2021/12/01 02:33:12;;;;;;;;;0.00;0.00;;;;;20.95;38.68;100214.41;5030334;28;45473;-72
2021/12/01 02:35:37;;;;;;;;;1.25;1.00;;;;;20.95;39.07;100207.28;5031495;28;45487;-72
2021/12/01 02:38:04;;;;;;;;;0.00;0.00;;;;;20.94;38.97;100194.28;5031683;27;45526;-72
2021/12/01 02:40:30;;;;;;;;;0.00;0.00;;;;;20.94;38.89;100181.06;5032884;28;45326;-72
2021/12/01 02:42:55;;;;;;;;;0.00;0.00;;;;;20.92;39.04;100170.66;5032296;28;45539;-73
2021/12/01 02:45:21;;;;;;;;;0.75;0.00;;;;;20.95;38.69;100161.50;5029870;28;45368;-72
2021/12/01 02:47:46;;;;;;;;;0.00;0.00;;;;;20.93;38.95;100150.31;5031363;28;47063;-72
2021/12/01 02:50:12;;;;;;;;;2.00;0.00;;;;;20.64;38.54;100105.31;5031466;28;45592;-73
2021/12/01 02:52:37;;;;;;;;;0.00;0.00;;;;;20.93;38.38;100140.56;5032431;28;45422;-71
2021/12/01 02:55:06;;;;;;;;;0.00;0.00;;;;;20.96;38.68;100134.06;5031241;28;45446;-72
2021/12/01 02:57:52;;;;;;;;;0.00;0.00;;;;;20.98;38.70;100123.28;5010345;28;47398;-72
2021/12/01 03:00:20;;;;;;;;;0.00;0.00;;;;;20.95;38.37;100108.63;5025375;28;45444;-73
2021/12/01 03:02:46;;;;;;;;;0.00;0.00;;;;;20.98;38.81;100104.78;5031190;28;45353;-73
2021/12/01 03:05:12;;;;;;;;;0.00;0.00;;;;;20.98;38.63;100092.38;5031187;28;45525;-72
2021/12/01 03:07:38;;;;;;;;;0.75;0.00;;;;;20.95;38.67;100083.00;5031104;27;46031;-72
2021/12/01 03:10:07;;;;;;;;;0.00;0.00;;;;;20.99;38.68;100075.53;5032855;27;45233;-72
2021/12/01 03:12:36;;;;;;;;;0.00;0.00;;;;;21.00;38.77;100066.56;5029843;27;45411;-73
2021/12/01 03:15:03;;;;;;;;;0.00;0.00;;;;;20.97;38.55;100056.38;5015608;28;45602;-72
2021/12/01 03:17:30;;;;;;;;;0.00;0.00;;;;;21.00;38.68;100050.69;5030869;28;46736;-72
2021/12/01 03:19:56;;;;;;;;;0.00;0.00;;;;;21.01;38.83;100049.72;5031024;28;45268;-72
2021/12/01 03:22:22;;;;;;;;;0.00;0.00;;;;;20.99;38.57;100041.13;5028742;28;45365;-72
2021/12/01 03:24:48;;;;;;;;;1.00;1.00;;;;;21.02;38.66;100034.69;5030912;28;45304;-73
2021/12/01 03:27:14;;;;;;;;;0.00;0.00;;;;;20.99;38.54;100014.69;5030736;27;46326;-73
2021/12/01 03:29:40;;;;;;;;;0.00;0.00;;;;;21.00;38.70;100015.50;5030588;27;45386;-72
2021/12/01 03:32:07;;;;;;;;;0.00;0.00;;;;;21.02;38.47;100010.88;5029847;28;45329;-73
2021/12/01 03:34:34;;;;;;;;;0.00;0.00;;;;;21.01;38.72;99998.63;5032276;28;45496;-72
2021/12/01 03:37:00;;;;;;;;;0.00;0.00;;;;;20.99;38.83;100005.94;5030131;28;45345;-72
2021/12/01 03:39:25;;;;;;;;;0.00;0.00;;;;;20.99;38.79;99990.06;5030642;28;45484;-72
2021/12/01 03:41:51;;;;;;;;;0.00;0.00;;;;;20.98;38.74;99981.31;5030781;28;45288;-72
2021/12/01 03:44:16;;;;;;;;;0.00;0.00;;;;;21.00;38.71;99976.63;5030789;28;45524;-72
2021/12/01 03:46:41;;;;;;;;;0.00;0.00;;;;;20.99;38.82;99968.91;5030567;28;46128;-73
2021/12/01 03:49:07;;;;;;;;;0.00;0.00;;;;;20.99;38.65;99966.28;5032609;28;45482;-72
2021/12/01 03:51:32;;;;;;;;;0.00;0.00;;;;;21.00;38.52;99963.41;5028948;28;45461;-72
2021/12/01 03:53:58;;;;;;;;;0.00;0.00;;;;;21.00;38.70;99954.69;5030552;28;45361;-72
2021/12/01 03:56:23;;;;;;;;;0.00;0.00;;;;;21.00;38.66;99950.19;5030510;27;45400;-72
2021/12/01 03:58:49;;;;;;;;;0.00;0.00;;;;;21.00;38.21;99952.84;5030429;27;45429;-73
2021/12/01 04:01:15;;;;;;;;;0.00;0.00;;;;;20.99;38.73;99945.94;5032726;28;45518;-72
2021/12/01 04:03:40;;;;;;;;;0.75;0.00;;;;;20.98;38.77;99960.16;5030340;28;45466;-72
2021/12/01 04:06:06;;;;;;;;;0.00;0.00;;;;;20.98;38.45;99946.13;5010096;28;45996;-73
2021/12/01 04:08:33;;;;;;;;;0.00;0.00;;;;;20.99;38.74;99950.41;5019811;28;45437;-73
2021/12/01 04:10:58;;;;;;;;;0.00;0.00;;;;;21.00;38.59;99939.63;5029380;28;45523;-73
2021/12/01 04:13:23;;;;;;;;;0.00;0.00;;;;;21.01;38.83;99935.16;5032527;28;45384;-73
2021/12/01 04:15:49;;;;;;;;;0.00;0.00;;;;;20.99;38.51;99932.72;5030040;28;45490;-73
2021/12/01 04:18:14;;;;;;;;;0.00;0.00;;;;;20.98;38.77;99944.28;5030069;28;45334;-73
2021/12/01 04:20:40;;;;;;;;;0.00;0.00;;;;;20.95;38.62;99928.81;5029574;28;45583;-72
2021/12/01 04:23:06;;;;;;;;;0.00;0.00;;;;;21.01;38.48;99927.22;5030464;28;45170;-73
2021/12/01 04:25:32;;;;;;;;;0.00;0.00;;;;;20.99;38.74;99922.13;5031086;28;47356;-73
2021/12/01 04:27:58;;;;;;;;;0.00;0.00;;;;;21.01;38.53;99916.63;5031094;28;45429;-72
2021/12/01 04:30:25;;;;;;;;;0.00;0.00;;;;;21.01;38.80;99906.06;5028469;27;45592;-72
2021/12/01 04:32:52;;;;;;;;;0.00;0.00;;;;;21.00;38.77;99889.38;5029955;28;45442;-73
2021/12/01 04:35:19;;;;;;;;;0.00;0.00;;;;;21.00;38.69;99878.78;5029663;27;46391;-72
2021/12/01 04:37:47;;;;;;;;;0.00;0.00;;;;;21.01;38.54;99861.97;5030121;28;45415;-73
2021/12/01 04:40:13;;;;;;;;;0.00;0.00;;;;;20.99;38.33;99858.66;5031884;28;45556;-72
2021/12/01 04:42:39;;;;;;;;;0.00;0.00;;;;;21.00;38.75;99851.56;5029747;27;45476;-73
2021/12/01 04:45:08;;;;;;;;;0.00;0.00;;;;;21.02;38.50;99841.63;5029268;27;45401;-72
2021/12/01 04:47:38;;;;;;;;;1.33;0.00;;;;;21.02;38.48;99845.09;5029667;27;45644;-72
2021/12/01 04:50:05;;;;;;;;;0.00;0.00;;;;;21.03;38.64;99838.78;5031591;28;45427;-72
2021/12/01 04:52:31;;;;;;;;;0.00;0.00;;;;;21.02;38.42;99836.34;5034435;28;45486;-73
2021/12/01 04:54:56;;;;;;;;;0.00;0.00;;;;;21.02;38.60;99838.97;5033331;28;45254;-72
2021/12/01 04:57:21;;;;;;;;;0.00;0.00;;;;;21.05;38.78;99830.66;5032566;28;45450;-72
2021/12/01 04:59:47;;;;;;;;;0.00;0.00;;;;;21.04;38.62;99816.59;5032675;28;46994;-73
2021/12/01 05:02:13;;;;;;;;;0.00;0.00;;;;;21.06;38.65;99805.81;5033009;28;45405;-72
2021/12/01 05:04:40;;;;;;;;;0.00;0.00;;;;;21.03;38.55;99822.06;5013306;28;46091;-72
2021/12/01 05:07:06;;;;;;;;;0.33;0.00;;;;;21.05;38.42;99834.09;5032756;28;45350;-73
2021/12/01 05:09:31;;;;;;;;;0.00;0.00;;;;;21.07;38.40;99831.25;5031071;27;45477;-72
2021/12/01 05:11:56;;;;;;;;;0.00;0.00;;;;;21.05;38.34;99828.81;5032636;28;45511;-72
2021/12/01 05:14:24;;;;;;;;;1.00;0.00;;;;;21.08;38.56;99821.50;5032510;27;46180;-72
2021/12/01 05:16:50;;;;;;;;;0.00;0.00;;;;;21.06;38.55;99822.50;5032481;27;45496;-72
2021/12/01 05:19:15;;;;;;;;;0.00;0.00;;;;;21.05;38.77;99820.88;5032133;28;46336;-72
2021/12/01 05:21:41;;;;;;;;;0.00;0.00;;;;;21.05;38.41;99818.22;5012544;28;45478;-72
2021/12/01 05:24:07;;;;;;;;;0.00;0.00;;;;;21.04;38.45;99811.31;5012446;28;45302;-72
2021/12/01 05:26:34;;;;;;;;;0.00;0.00;;;;;21.05;38.67;99812.94;5012437;28;45414;-72
2021/12/01 05:28:59;;;;;;;;;0.00;0.00;;;;;21.06;38.77;99809.28;5011436;28;45447;-72
2021/12/01 05:31:25;;;;;;;;;0.00;0.00;;;;;21.07;38.45;99804.81;5010021;28;45296;-72
2021/12/01 05:33:52;;;;;;;;;0.00;0.00;;;;;21.07;38.62;99802.19;5011268;27;45327;-72
2021/12/01 05:36:17;;;;;;;;;0.00;0.00;;;;;21.00;38.38;99788.09;5012123;28;45419;-72
2021/12/01 05:38:43;;;;;;;;;2.00;0.00;;;;;21.03;38.73;99801.75;5012395;28;46504;-72
2021/12/01 05:41:08;;;;;;;;;0.00;0.00;;;;;21.02;38.43;99778.16;5023821;28;45540;-72
2021/12/01 05:43:34;;;;;;;;;0.00;0.00;;;;;21.05;38.39;99786.50;5013175;28;45303;-72
2021/12/01 05:45:59;;;;;;;;;0.00;0.00;;;;;21.06;38.45;99777.56;5013445;28;45437;-72
2021/12/01 05:48:24;;;;;;;;;0.00;0.00;;;;;21.06;38.50;99782.00;5010508;28;45292;-72
2021/12/01 05:50:50;;;;;;;;;0.00;0.00;;;;;21.05;38.46;99767.97;5012355;28;45449;-72
2021/12/01 05:53:15;;;;;;;;;0.00;0.00;;;;;21.06;38.54;99777.56;5012069;27;47138;-72
2021/12/01 05:55:41;;;;;;;;;0.00;0.00;;;;;21.06;38.32;99772.25;5012233;28;45330;-72
2021/12/01 05:58:07;;;;;;;;;0.00;0.00;;;;;21.06;38.86;99759.03;5014368;28;45367;-72
2021/12/01 06:00:33;;;;;;;;;0.00;0.00;;;;;21.05;38.30;99759.25;5011046;28;45361;-72
2021/12/01 06:02:59;;;;;;;;;1.67;0.00;;;;;21.06;38.68;99753.75;5011395;28;46224;-73
2021/12/01 06:05:25;;;;;;;;;0.00;0.00;;;;;21.08;38.72;99753.53;5011963;28;45449;-72
2021/12/01 06:07:50;;;;;;;;;0.00;0.00;;;;;21.04;38.39;99737.28;5011946;28;45282;-72
2021/12/01 06:10:17;;;;;;;;;0.00;0.00;;;;;21.09;38.46;99757.00;5013431;28;45267;-72
2021/12/01 06:12:44;;;;;;;;;0.00;0.00;;;;;21.05;38.74;99746.03;5011756;28;45378;-72
2021/12/01 06:15:11;;;;;;;;;0.00;0.00;;;;;21.05;38.40;99740.75;5011938;28;45391;-72
2021/12/01 06:17:40;;;;;;;;;0.00;0.00;;;;;21.03;38.74;99735.63;5012258;28;45344;-72
2021/12/01 06:20:07;;;;;;;;;0.00;0.00;;;;;21.07;38.40;99741.34;5020716;28;47330;-72
2021/12/01 06:22:33;;;;;;;;;0.00;0.00;;;;;21.06;38.77;99745.00;5032764;28;47499;-72
2021/12/01 06:24:58;;;;;;;;;0.00;0.00;;;;;21.06;38.73;99745.81;5032567;28;45453;-72
2021/12/01 06:27:25;;;;;;;;;0.00;0.00;;;;;21.06;38.73;99740.53;5030264;28;45346;-72
2021/12/01 06:29:52;;;;;;;;;0.00;0.00;;;;;21.06;38.79;99756.41;5031719;28;45496;-72
2021/12/01 06:32:17;;;;;;;;;0.00;0.00;;;;;21.06;38.53;99745.81;5031052;28;46263;-73
2021/12/01 06:34:43;;;;;;;;;0.00;0.00;;;;;21.07;38.47;99751.94;5031648;28;45513;-73
2021/12/01 06:37:09;;;;;;;;;0.00;0.00;;;;;21.06;38.15;99758.22;5033637;28;45353;-72
2021/12/01 06:39:34;;;;;;;;;0.00;0.00;;;;;21.11;38.58;99754.97;5031346;28;45382;-72
2021/12/01 06:41:59;;;;;;;;;0.00;0.00;;;;;21.11;38.66;99771.66;5031380;27;45254;-72
2021/12/01 06:44:25;;;;;;;;;0.00;0.00;;;;;21.10;38.52;99754.19;5031307;27;45501;-72
2021/12/01 06:46:51;;;;;;;;;0.00;0.00;;;;;21.12;38.51;99759.25;5030775;27;45444;-73
2021/12/01 06:49:17;;;;;;;;;0.00;0.00;;;;;21.10;38.53;99745.41;5032978;27;45396;-73
2021/12/01 06:51:42;;;;;;;;;0.00;0.00;;;;;21.12;38.59;99752.13;5031159;27;46925;-72
2021/12/01 06:54:07;;;;;;;;;0.00;0.00;;;;;21.11;38.42;99755.78;5031322;28;45446;-73
2021/12/01 06:56:33;;;;;;;;;0.00;0.00;;;;;21.13;38.51;99753.75;5031615;27;45525;-73
2021/12/01 06:58:58;;;;;;;;;0.00;0.00;;;;;21.14;38.67;99750.09;5013542;28;45572;-73
2021/12/01 07:01:24;;;;;;;;;0.00;0.00;;;;;21.14;38.37;99752.75;5033212;28;46119;-73
2021/12/01 07:03:49;;;;;;;;;0.33;0.00;;;;;21.15;38.41;99756.22;5031212;28;45424;-73
2021/12/01 07:06:14;;;;;;;;;0.00;0.00;;;;;21.14;38.58;99751.94;5029885;28;45379;-73
2021/12/01 07:08:40;;;;;;;;;0.00;0.00;;;;;21.14;38.53;99758.03;5031283;27;45367;-73
2021/12/01 07:11:05;;;;;;;;;1.67;0.00;;;;;21.15;38.59;99762.31;5030856;28;45468;-72
2021/12/01 07:13:33;;;;;;;;;0.00;0.00;;;;;21.14;38.46;99767.78;5032431;28;45331;-72
2021/12/01 07:16:00;;;;;;;;;0.00;0.00;;;;;21.14;38.63;99765.97;5029797;28;45442;-72
2021/12/01 07:18:28;;;;;;;;;0.00;0.00;;;;;21.12;38.53;99761.91;5030947;27;45390;-72
2021/12/01 07:20:54;;;;;;;;;0.00;0.00;;;;;21.15;38.33;99756.22;5030406;27;46150;-73
2021/12/01 07:23:19;;;;;;;;;0.00;0.00;;;;;21.15;38.54;99756.22;5030872;27;45543;-72
2021/12/01 07:25:44;;;;;;;;;0.00;0.00;;;;;21.15;38.51;99761.50;5031502;27;45572;-70
2021/12/01 07:28:10;;;;;;;;;0.00;0.00;;;;;21.14;38.67;99758.03;5031120;28;45456;-71
2021/12/01 07:30:37;;;;;;;;;1.00;0.00;;;;;21.16;38.54;99774.50;5012812;28;48308;-72
2021/12/01 07:33:03;;;;;;;;;0.00;0.00;;;;;21.15;38.52;99766.78;5030489;27;45344;-71
2021/12/01 07:35:29;;;;;;;;;0.00;0.00;;;;;21.14;38.98;99771.25;5024142;28;45541;-72
2021/12/01 07:37:54;;;;;;;;;0.00;0.00;;;;;21.16;38.75;99774.50;5019597;28;45535;-71
2021/12/01 07:40:19;;;;;;;;;0.00;0.00;;;;;21.14;38.92;99759.84;5032144;28;46993;-72
2021/12/01 07:42:45;;;;;;;;;0.00;0.00;;;;;21.17;38.73;99770.88;5030560;28;45659;-72
2021/12/01 07:45:11;;;;;;;;;0.00;0.00;;;;;21.18;38.85;99771.69;5031190;28;45459;-71
2021/12/01 07:47:37;;;;;;;;;0.75;0.00;;;;;21.18;38.98;99771.69;5032234;27;45579;-71
2021/12/01 07:50:04;;;;;;;;;0.00;0.00;;;;;21.17;39.08;99772.69;5030617;28;45655;-73
2021/12/01 07:52:30;;;;;;;;;0.00;0.00;;;;;21.20;39.23;99772.28;5032038;28;45404;-75
2021/12/01 07:54:56;;;;;;;;;0.00;0.00;;;;;21.21;39.18;99792.44;5031251;28;45465;-74
2021/12/01 07:57:21;;;;;;;;;0.00;0.00;;;;;21.18;39.01;99779.63;5029775;28;45435;-73
2021/12/01 07:59:47;;;;;;;;;1.00;0.00;;;;;21.21;38.93;99783.69;5022419;28;46048;-72
2021/12/01 08:02:12;;;;;;;;;0.00;0.00;;;;;21.21;38.94;99792.44;5010335;28;45527;-72
2021/12/01 08:04:38;;;;;;;;;0.00;0.00;;;;;21.21;39.03;99792.44;5031404;28;45345;-72
2021/12/01 08:07:03;;;;;;;;;0.00;0.00;;;;;21.21;39.02;99804.84;5030175;28;45429;-72
2021/12/01 08:09:29;;;;;;;;;0.00;0.00;;;;;21.22;38.99;99803.81;5029789;28;47128;-73
2021/12/01 08:11:55;;;;;;;;;0.00;0.00;;;;;21.21;39.00;99808.28;5029895;28;45414;-71
2021/12/01 08:14:21;;;;;;;;;0.00;0.00;;;;;21.20;38.91;99795.28;5030212;28;45438;-72
2021/12/01 08:16:47;;;;;;;;;0.00;0.00;;;;;21.22;39.11;99787.97;5030496;28;45688;-72
2021/12/01 08:19:13;;;;;;;;;0.00;0.00;;;;;21.22;39.09;99780.84;5030566;28;47063;-72
2021/12/01 08:21:39;;;;;;;;;0.00;0.00;;;;;21.22;39.27;99790.59;5029912;28;45354;-72
2021/12/01 08:24:05;;;;;;;;;0.00;0.00;;;;;21.22;38.92;99794.06;5030548;28;45637;-70
2021/12/01 08:26:30;;;;;;;;;0.00;0.00;;;;;21.22;39.24;99780.03;5032669;28;45548;-72
2021/12/01 08:28:56;;;;;;;;;0.00;0.00;;;;;21.24;39.40;99777.97;5014409;28;48234;-72
2021/12/01 08:31:22;;;;;;;;;0.00;0.00;;;;;21.21;38.92;99789.00;5035185;27;45524;-72
2021/12/01 08:33:48;;;;;;;;;0.00;0.00;;;;;21.25;39.32;99806.06;5033043;27;45459;-72
2021/12/01 08:36:14;;;;;;;;;0.00;0.00;;;;;21.25;39.17;99804.25;5033049;28;45429;-72
2021/12/01 08:38:41;;;;;;;;;0.00;0.00;;;;;21.23;38.92;99802.81;5030562;28;45548;-72
2021/12/01 08:41:07;;;;;;;;;0.00;0.00;;;;;21.25;39.31;99806.91;5032391;28;45688;-72
2021/12/01 08:43:33;;;;;;;;;0.00;0.00;;;;;21.26;38.96;99810.38;5034209;28;45514;-72
2021/12/01 08:46:00;;;;;;;;;0.00;0.00;;;;;21.27;39.29;99817.28;5034025;28;45564;-72
2021/12/01 08:48:26;;;;;;;;;0.33;0.00;;;;;21.27;39.28;99819.91;5033066;28;47287;-72
2021/12/01 08:50:52;;;;;;;;;0.00;0.00;;;;;21.27;39.08;99823.38;5032831;27;45577;-72
2021/12/01 08:53:17;;;;;;;;;0.00;0.00;;;;;21.28;39.06;99832.13;5033068;28;45503;-72
2021/12/01 08:55:44;;;;;;;;;0.00;0.00;;;;;21.26;39.00;99824.38;5033129;28;45261;-72
2021/12/01 08:58:12;;;;;;;;;0.00;0.00;;;;;21.27;39.00;99831.31;5032980;27;47344;-70
2021/12/01 09:00:43;;;;;;;;;0.00;0.00;;;;;21.28;39.06;99827.66;5032197;28;45784;-72
2021/12/01 09:03:09;;;;;;;;;0.00;0.00;;;;;21.29;39.41;99833.75;5031223;27;45285;-72
2021/12/01 09:05:34;;;;;;;;;0.00;0.00;;;;;21.25;39.23;99828.06;5032358;28;45428;-72
2021/12/01 09:08:00;;;;;;;;;0.00;0.00;;;;;21.28;39.44;99837.44;5032539;28;46886;-73
2021/12/01 09:10:25;;;;;;;;;0.00;0.00;;;;;21.29;39.09;99842.50;5034327;28;45731;-72
2021/12/01 09:12:51;;;;;;;;;0.00;0.00;;;;;21.29;39.17;99850.44;5031314;28;45240;-72
2021/12/01 09:15:16;;;;;;;;;0.00;0.00;;;;;21.27;39.29;99838.44;5032593;28;45484;-72
2021/12/01 09:17:41;;;;;;;;;0.00;0.00;;;;;21.29;39.40;99850.44;5032150;27;47109;-72
2021/12/01 09:20:07;;;;;;;;;0.50;0.50;;;;;21.28;38.81;99853.31;5032273;28;45496;-72
2021/12/01 09:22:33;;;;;;;;;0.67;0.00;;;;;21.29;39.22;99853.09;5033743;28;45443;-73
2021/12/01 09:24:58;;;;;;;;;0.00;0.00;;;;;21.31;39.02;99857.38;5031691;28;45451;-73
2021/12/01 09:27:24;;;;;;;;;0.00;0.00;;;;;21.30;39.11;99856.56;5031597;28;45442;-73
2021/12/01 09:29:49;;;;;;;;;0.00;0.00;;;;;21.28;39.14;99862.06;5032117;28;45421;-73
2021/12/01 09:32:14;;;;;;;;;0.00;0.00;;;;;21.29;39.33;99863.69;5032371;28;45359;-73
2021/12/01 09:34:41;;;;;;;;;1.00;0.00;;;;;21.31;39.36;99863.50;5031331;28;45421;-73
2021/12/01 09:37:07;;;;;;;;;0.00;0.00;;;;;21.30;39.02;99861.84;5032033;28;47005;-73
2021/12/01 09:39:33;;;;;;;;;0.00;0.00;;;;;21.32;39.08;99854.53;5031747;28;45419;-73
2021/12/01 09:42:00;;;;;;;;;0.00;0.00;;;;;21.33;39.24;99855.34;5030690;28;45286;-72
2021/12/01 09:44:25;;;;;;;;;0.00;0.00;;;;;21.33;39.50;99852.69;5031912;28;45378;-73
2021/12/01 09:46:51;;;;;;;;;0.00;0.00;;;;;21.32;39.20;99865.09;5031948;27;45444;-73
2021/12/01 09:49:18;;;;;;;;;0.00;0.00;;;;;21.32;39.39;99864.28;5034072;28;45679;-72
2021/12/01 09:51:43;;;;;;;;;0.67;0.00;;;;;21.34;39.48;99872.88;5032296;27;45379;-73
2021/12/01 09:54:09;;;;;;;;;1.75;0.00;;;;;21.35;39.14;99877.94;5031481;27;45284;-72
2021/12/01 09:56:34;;;;;;;;;0.00;0.00;;;;;21.33;39.26;99884.44;5031910;28;45914;-73
2021/12/01 09:59:00;;;;;;;;;1.00;0.00;;;;;21.33;39.31;99887.91;5031757;28;45497;-73
2021/12/01 10:01:27;;;;;;;;;1.00;0.00;;;;;21.36;39.10;99890.16;5034337;28;45507;-73
2021/12/01 10:03:52;;;;;;;;;0.00;0.00;;;;;21.36;39.44;99892.81;5031992;28;45538;-73
2021/12/01 10:06:23;;;;;;;;;0.00;0.00;;;;;21.36;39.44;99884.88;5031126;27;46294;-73
2021/12/01 10:09:00;;;;;;;;;0.00;0.00;;;;;21.36;39.16;99890.16;5031170;28;45439;-73
2021/12/01 10:11:30;;;;;;;;;0.00;0.00;;;;;21.37;39.46;99885.66;5031775;28;45509;-73
2021/12/01 10:13:59;;;;;;;;;0.00;0.00;;;;;21.36;39.13;99892.81;5014930;28;45471;-73
2021/12/01 10:16:27;;;;;;;;;0.00;0.00;;;;;21.38;39.31;99895.25;5029742;28;46305;-73
2021/12/01 10:18:59;;;;;;;;;0.00;0.00;;;;;21.36;39.46;99898.09;5031650;28;45322;-72
2021/12/01 10:21:47;;;;;;;;;1.00;1.00;;;;;21.37;39.14;99890.97;5030091;28;45536;-73
2021/12/01 10:24:23;;;;;;;;;1.00;1.00;;;;;21.38;39.17;99890.78;5031104;28;45538;-73
2021/12/01 10:26:55;;;;;;;;;0.00;0.00;;;;;21.38;39.35;99895.25;5031315;27;45480;-73
2021/12/01 10:29:30;;;;;;;;;0.00;0.00;;;;;21.38;39.32;99890.78;5031604;27;45391;-73
2021/12/01 10:32:00;;;;;;;;;0.00;0.00;;;;;21.40;39.34;99887.94;5016071;28;45500;-73
2021/12/01 10:34:37;;;;;;;;;0.00;0.00;;;;;21.40;39.46;99885.28;5029887;28;45420;-73
2021/12/01 10:37:08;;;;;;;;;0.00;0.00;;;;;21.40;39.18;99872.88;5032928;28;46103;-73
2021/12/01 10:39:34;;;;;;;;;0.00;0.00;;;;;21.42;39.54;99871.88;5031298;28;45585;-73
2021/12/01 10:42:09;;;;;;;;;0.00;0.00;;;;;21.39;39.16;99873.09;5030257;28;45474;-73
2021/12/01 10:44:35;;;;;;;;;1.00;0.00;;;;;21.40;39.36;99869.41;5031406;28;45310;-73
2021/12/01 10:47:10;;;;;;;;;0.00;0.00;;;;;21.39;39.00;99865.16;5030673;28;45491;-73
2021/12/01 10:49:42;;;;;;;;;0.00;0.00;;;;;21.38;39.22;99868.78;5032105;28;45272;-72
2021/12/01 10:52:26;;;;;;;;;1.67;0.00;;;;;;;;5033075;28;45511;-73
2021/12/01 10:55:10;;;;;;;;;1.00;0.00;;;;;;;;5030087;28;45194;-73
2021/12/01 10:58:08;;;;;;;;;0.00;0.00;;;;;;;;5030983;28;46118;-73
2021/12/01 11:00:39;;;;;;;;;1.00;0.00;;;;;21.42;39.35;99875.31;5084902;27;45416;-73
2021/12/01 11:03:07;;;;;;;;;0.00;0.00;;;;;21.42;39.15;99872.66;5082498;27;45623;-73
2021/12/01 11:05:38;;;;;;;;;0.00;0.00;;;;;21.44;39.41;99869.84;5082346;27;45369;-73
2021/12/01 11:08:21;;;;;;;;;2.33;0.33;;;;;21.44;39.19;99856.59;5078616;27;45440;-72
2021/12/01 11:10:46;;;;;;;;;0.67;0.67;;;;;21.42;39.45;99862.06;5077413;27;45839;-73
2021/12/01 11:13:12;;;;;;;;;0.75;0.00;;;;;21.42;39.32;99856.78;5080204;27;45465;-73
2021/12/01 11:15:43;;;;;;;;;0.00;0.00;;;;;21.44;39.29;99861.91;5082312;27;45631;-72
2021/12/01 11:18:15;;;;;;;;;0.00;0.00;;;;;21.42;39.54;99867.38;5081966;27;47272;-72
2021/12/01 11:20:42;;;;;;;;;4.00;1.00;;;;;;;;5081580;27;45570;-73
2021/12/01 11:23:09;;;;;;;;;1.00;0.00;;;;;;;;5079363;27;45587;-72
2021/12/01 11:25:37;;;;;;;;;0.00;0.00;;;;;21.41;39.17;99881.63;5077245;27;45673;-74
2021/12/01 11:28:13;;;;;;;;;0.00;0.00;;;;;21.40;39.49;99870.22;5080847;27;46109;-73
2021/12/01 11:30:40;;;;;;;;;0.00;0.00;;;;;21.40;38.91;99872.88;5081771;27;45580;-74
2021/12/01 11:33:05;;;;;;;;;1.67;0.00;;;;;21.40;39.16;99869.41;5082365;27;45269;-74
2021/12/01 11:35:31;;;;;;;;;0.67;0.00;;;;;21.40;39.42;99882.63;5063254;27;45677;-73